createdAt,value
2018-07-25T00:01:36.606Z,20.30
2018-07-25T00:06:39.882Z,20.30
2018-07-25T00:11:43.157Z,20.30
2018-07-25T00:16:46.483Z,20.40
2018-07-25T00:21:49.799Z,20.20
2018-07-25T00:26:53.587Z,20.20
2018-07-25T00:31:56.963Z,20.10
2018-07-25T00:37:00.368Z,19.90
2018-07-25T00:42:05.574Z,19.80
2018-07-25T00:47:08.874Z,19.70
2018-07-25T00:52:12.361Z,19.60
2018-07-25T00:57:16.033Z,19.60
2018-07-25T01:02:19.761Z,19.30
2018-07-25T01:07:23.786Z,19.10
2018-07-25T01:12:27.684Z,18.70
2018-07-25T01:17:30.951Z,18.50
2018-07-25T01:22:34.344Z,18.20
2018-07-25T01:32:40.644Z,18.10
2018-07-25T01:37:43.907Z,18.10
2018-07-25T01:42:47.205Z,18.30
2018-07-25T01:47:50.513Z,18.30
2018-07-25T01:52:53.789Z,18.40
2018-07-25T01:57:57.062Z,18.40
2018-07-25T02:03:00.363Z,18.50
2018-07-25T02:08:03.655Z,18.10
2018-07-25T02:13:06.970Z,18.00
2018-07-25T02:18:10.256Z,18.00
2018-07-25T02:23:13.555Z,17.70
2018-07-25T02:28:16.868Z,17.70
2018-07-25T02:33:24.372Z,18.00
2018-07-25T02:38:27.655Z,18.00
2018-07-25T02:43:30.927Z,18.10
2018-07-25T02:48:34.184Z,18.00
2018-07-25T02:53:37.439Z,18.00
2018-07-25T02:58:47.298Z,17.70
2018-07-25T03:03:50.560Z,17.60
2018-07-25T03:08:53.853Z,17.70
2018-07-25T03:13:57.682Z,17.70
2018-07-25T03:19:00.979Z,17.50
2018-07-25T03:24:04.261Z,17.30
2018-07-25T03:29:07.566Z,17.30
2018-07-25T03:34:10.836Z,17.10
2018-07-25T03:39:14.083Z,17.10
2018-07-25T03:44:17.387Z,17.00
2018-07-25T03:49:20.651Z,17.00
2018-07-25T03:54:23.908Z,17.20
2018-07-25T03:59:27.173Z,17.40
2018-07-25T04:04:30.462Z,17.40
2018-07-25T04:09:33.714Z,17.50
2018-07-25T04:14:36.980Z,17.50
2018-07-25T04:19:40.241Z,17.70
2018-07-25T04:24:43.761Z,17.70
2018-07-25T04:29:47.035Z,17.30
2018-07-25T04:34:50.342Z,17.30
2018-07-25T04:39:53.603Z,17.50
2018-07-25T04:55:02.939Z,17.80
2018-07-25T05:00:06.266Z,18.00
2018-07-25T05:05:09.549Z,18.10
2018-07-25T05:10:12.851Z,18.10
2018-07-25T05:15:16.119Z,18.50
2018-07-25T05:20:19.413Z,18.50
2018-07-25T05:25:22.686Z,18.60
2018-07-25T05:35:29.495Z,19.00
2018-07-25T05:40:32.767Z,19.10
2018-07-25T05:45:36.052Z,19.00
2018-07-25T05:50:39.554Z,19.10
2018-07-25T05:55:42.818Z,19.10
2018-07-25T06:00:46.107Z,19.20
2018-07-25T06:05:49.444Z,19.30
2018-07-25T06:10:52.655Z,19.60
2018-07-25T06:15:55.926Z,19.80
2018-07-25T06:20:59.206Z,20.20
2018-07-25T06:26:02.609Z,20.30
2018-07-25T06:31:06.250Z,20.50
2018-07-25T06:36:09.531Z,21.10
2018-07-25T06:41:13.029Z,21.40
2018-07-25T06:46:17.039Z,21.40
2018-07-25T06:51:20.376Z,21.40
2018-07-25T06:56:23.669Z,21.30
2018-07-25T07:01:27.935Z,21.80
2018-07-25T07:06:31.208Z,22.40
2018-07-25T07:11:34.483Z,22.30
2018-07-25T07:16:38.407Z,23.70
2018-07-25T07:26:45.725Z,23.90
2018-07-25T07:31:49.075Z,24.20
2018-07-25T07:36:52.765Z,24.90
2018-07-25T07:41:56.119Z,25.00
2018-07-25T07:46:59.480Z,24.30
2018-07-25T07:52:02.989Z,25.10
2018-07-25T07:57:06.586Z,26.60
2018-07-25T08:02:10.014Z,26.30
2018-07-25T08:07:13.667Z,27.80
2018-07-25T08:17:20.581Z,27.10
2018-07-25T08:22:24.838Z,28.20
2018-07-25T08:27:28.129Z,28.00
2018-07-25T08:32:31.935Z,28.50
2018-07-25T08:37:35.948Z,28.90
2018-07-25T08:42:39.508Z,29.20
2018-07-25T08:52:46.785Z,30.80
2018-07-25T09:02:53.052Z,30.00
2018-07-25T09:07:56.327Z,30.40
2018-07-25T09:12:59.966Z,31.30
2018-07-25T09:18:04.785Z,31.60
2018-07-25T09:23:08.635Z,31.90
2018-07-25T09:28:13.274Z,32.20
2018-07-25T09:33:17.070Z,32.70
2018-07-25T09:38:20.332Z,32.90
2018-07-25T09:48:27.156Z,33.30
2018-07-25T09:53:30.507Z,33.30
2018-07-25T09:58:34.480Z,32.60
2018-07-25T10:03:38.779Z,32.90
2018-07-25T10:08:42.085Z,33.10
2018-07-25T10:13:45.404Z,33.20
2018-07-25T10:18:48.670Z,33.80
2018-07-25T10:23:51.928Z,34.50
2018-07-25T10:28:55.204Z,35.00
2018-07-25T10:33:58.472Z,35.50
2018-07-25T10:39:01.752Z,35.40
2018-07-25T10:44:05.075Z,35.10
2018-07-25T10:49:08.383Z,35.70
2018-07-25T10:54:11.667Z,34.50
2018-07-25T10:59:15.116Z,33.70
2018-07-25T11:04:18.387Z,33.30
2018-07-25T11:09:22.229Z,33.90
2018-07-25T11:14:25.548Z,33.90
2018-07-25T11:19:28.815Z,31.70
2018-07-25T11:29:35.107Z,32.80
2018-07-25T11:34:38.404Z,33.80
2018-07-25T11:39:41.664Z,34.80
2018-07-25T11:44:44.936Z,35.80
2018-07-25T11:49:48.222Z,36.20
2018-07-25T11:54:51.504Z,35.20
2018-07-25T11:59:54.747Z,33.70
2018-07-25T12:04:57.999Z,32.80
2018-07-25T12:10:01.280Z,32.00
2018-07-25T12:15:06.149Z,29.10
2018-07-25T12:20:09.407Z,31.20
2018-07-25T12:25:12.704Z,31.00
2018-07-25T12:30:15.972Z,31.60
2018-07-25T12:35:19.228Z,31.60
2018-07-25T12:40:22.514Z,32.90
2018-07-25T12:50:28.931Z,33.10
2018-07-25T13:00:35.466Z,31.90
2018-07-25T13:05:38.718Z,31.20
2018-07-25T13:10:42.028Z,29.90
2018-07-25T13:20:48.340Z,25.50
2018-07-25T13:25:51.640Z,24.50
2018-07-25T13:41:00.976Z,23.30
2018-07-25T13:46:04.679Z,23.40
2018-07-25T14:01:14.912Z,25.60
2018-07-25T14:06:18.199Z,26.10
2018-07-25T14:11:21.462Z,26.10
2018-07-25T14:16:24.740Z,28.20
2018-07-25T14:21:28.019Z,30.40
2018-07-25T14:31:34.359Z,33.50
2018-07-25T14:36:37.653Z,34.20
2018-07-25T14:41:41.498Z,35.60
2018-07-25T14:46:44.822Z,36.60
2018-07-25T14:51:48.038Z,34.00
2018-07-25T14:56:51.332Z,32.60
2018-07-25T15:01:54.583Z,32.80
2018-07-25T15:06:57.919Z,31.50
2018-07-25T15:12:01.209Z,30.90
2018-07-25T15:17:04.543Z,30.30
2018-07-25T15:22:07.820Z,29.80
2018-07-25T15:27:11.115Z,30.00
2018-07-25T15:32:14.422Z,31.20
2018-07-25T15:37:17.682Z,31.60
2018-07-25T15:42:20.968Z,32.10
2018-07-25T15:47:24.290Z,32.10
2018-07-25T15:52:27.567Z,32.90
2018-07-25T15:57:30.827Z,32.50
2018-07-25T16:07:37.427Z,31.60
2018-07-25T16:12:40.874Z,28.20
2018-07-25T16:22:47.757Z,26.00
2018-07-25T16:37:57.236Z,25.70
2018-07-25T16:43:00.498Z,25.70
2018-07-25T16:48:03.766Z,26.20
2018-07-25T16:53:07.035Z,26.50
2018-07-25T16:58:10.462Z,26.30
2018-07-25T17:03:13.870Z,26.10
2018-07-25T17:08:17.405Z,26.00
2018-07-25T17:13:21.025Z,26.00
2018-07-25T17:18:24.308Z,26.00
2018-07-25T17:28:30.602Z,25.00
2018-07-25T17:33:33.903Z,25.10
2018-07-25T17:38:37.198Z,25.20
2018-07-25T17:43:40.488Z,25.20
2018-07-25T17:53:46.804Z,24.90
2018-07-25T18:03:53.324Z,24.90
2018-07-25T18:14:05.067Z,24.60
2018-07-25T18:19:08.923Z,24.60
2018-07-25T18:24:13.160Z,24.60
2018-07-25T18:29:16.721Z,24.50
2018-07-25T18:34:19.989Z,24.50
2018-07-25T18:39:23.346Z,24.50
2018-07-25T19:09:41.759Z,23.80
2018-07-25T19:19:53.675Z,23.70
2018-07-25T19:30:00.653Z,23.40
2018-07-25T19:45:09.952Z,22.90
2018-07-25T19:50:13.248Z,22.70
2018-07-25T20:05:22.616Z,22.20
2018-07-25T20:30:43.488Z,22.00
2018-07-25T21:21:14.979Z,21.10
2018-07-25T21:26:18.244Z,21.10
2018-07-25T21:31:21.542Z,21.10
2018-07-25T21:36:25.360Z,21.30
2018-07-25T21:41:29.177Z,21.30
2018-07-25T21:46:33.011Z,21.10
2018-07-25T21:51:36.706Z,20.90
2018-07-25T21:56:40.551Z,21.00
2018-07-25T22:01:43.906Z,20.90
2018-07-25T22:06:47.173Z,20.90
2018-07-25T22:11:50.410Z,20.70
2018-07-25T22:16:53.720Z,20.80
2018-07-25T22:21:56.985Z,20.80
2018-07-25T22:27:00.251Z,20.90
2018-07-25T22:32:04.008Z,20.80
2018-07-25T22:37:07.504Z,20.80
2018-07-25T22:47:14.059Z,20.80
2018-07-25T22:52:17.311Z,20.80
2018-07-25T22:57:21.228Z,20.80
2018-07-25T23:02:24.493Z,20.80
2018-07-25T23:07:27.766Z,20.70
2018-07-25T23:12:31.364Z,20.60
2018-07-25T23:17:34.620Z,20.50
2018-07-25T23:22:50.059Z,20.50
2018-07-25T23:27:54.463Z,19.90
2018-07-25T23:32:57.752Z,19.90
2018-07-25T23:38:01.020Z,19.70
2018-07-25T23:43:04.303Z,19.70
2018-07-25T23:48:07.564Z,19.70
2018-07-25T23:53:10.823Z,19.70
2018-07-25T23:58:14.086Z,19.70
